createdAt,value
2018-08-25T00:03:29.589Z,66.76
2018-08-25T00:08:38.894Z,66.77
2018-08-25T00:13:46.888Z,66.65
2018-08-25T00:18:53.471Z,66.06
2018-08-25T00:24:00.495Z,66.47
2018-08-25T00:29:07.872Z,66.59
2018-08-25T00:34:15.920Z,66.69
2018-08-25T00:39:22.713Z,66.90
2018-08-25T00:44:29.861Z,66.12
2018-08-25T00:49:36.697Z,66.96
2018-08-25T00:54:43.033Z,67.01
2018-08-25T00:59:49.781Z,67.18
2018-08-25T01:04:55.761Z,67.30
2018-08-25T01:10:01.408Z,67.14
2018-08-25T01:15:06.384Z,67.43
2018-08-25T01:20:11.896Z,66.88
2018-08-25T01:25:17.981Z,68.01
2018-08-25T01:30:23.830Z,67.33
2018-08-25T01:35:30.702Z,67.08
2018-08-25T01:40:36.794Z,66.73
2018-08-25T01:45:43.343Z,66.47
2018-08-25T01:50:49.646Z,66.63
2018-08-25T01:55:55.420Z,66.80
2018-08-25T02:01:00.835Z,65.93
2018-08-25T02:06:08.658Z,66.04
2018-08-25T02:11:12.633Z,66.08
2018-08-25T02:16:16.925Z,66.80
2018-08-25T02:21:20.886Z,67.05
2018-08-25T02:26:27.473Z,66.75
2018-08-25T02:31:33.055Z,66.41
2018-08-25T02:36:38.855Z,67.36
2018-08-25T02:41:44.827Z,67.54
2018-08-25T02:46:50.855Z,67.52
2018-08-25T02:51:56.580Z,67.66
2018-08-25T02:57:03.343Z,67.53
2018-08-25T03:02:09.445Z,67.80
2018-08-25T03:07:15.175Z,67.40
2018-08-25T03:12:20.613Z,67.13
2018-08-25T03:17:24.838Z,66.66
2018-08-25T03:22:29.514Z,66.96
2018-08-25T03:27:33.686Z,66.31
2018-08-25T03:32:38.367Z,66.82
2018-08-25T03:37:43.638Z,66.42
2018-08-25T03:42:48.725Z,67.37
2018-08-25T03:47:53.006Z,66.87
2018-08-25T03:52:57.485Z,66.78
2018-08-25T03:58:03.875Z,66.44
2018-08-25T04:03:10.090Z,66.56
2018-08-25T04:08:15.950Z,66.62
2018-08-25T04:13:21.501Z,66.13
2018-08-25T04:18:26.882Z,66.35
2018-08-25T04:23:32.280Z,66.19
2018-08-25T04:28:38.389Z,66.60
2018-08-25T04:33:43.863Z,66.46
2018-08-25T04:38:51.040Z,66.27
2018-08-25T04:43:55.643Z,66.47
2018-08-25T04:48:59.367Z,66.47
2018-08-25T04:54:03.208Z,66.69
2018-08-25T04:59:06.983Z,67.06
2018-08-25T05:04:09.251Z,66.41
2018-08-25T05:09:11.387Z,66.79
2018-08-25T05:14:13.487Z,65.97
2018-08-25T05:19:15.630Z,66.91
2018-08-25T05:24:17.726Z,65.96
2018-08-25T05:29:19.892Z,66.52
2018-08-25T05:34:22.004Z,66.75
2018-08-25T05:39:24.160Z,66.76
2018-08-25T05:44:26.363Z,66.70
2018-08-25T05:49:28.780Z,67.55
2018-08-25T05:54:30.915Z,66.96
2018-08-25T05:59:33.065Z,66.99
2018-08-25T06:04:35.181Z,66.58
2018-08-25T06:09:37.320Z,66.26
2018-08-25T06:14:39.448Z,66.49
2018-08-25T06:19:41.606Z,65.88
2018-08-25T06:24:43.718Z,65.43
2018-08-25T06:29:46.007Z,66.11
2018-08-25T06:34:48.048Z,64.86
2018-08-25T06:39:50.163Z,65.11
2018-08-25T06:44:52.337Z,64.07
2018-08-25T06:49:54.519Z,64.18
2018-08-25T06:54:56.708Z,64.66
2018-08-25T06:59:58.887Z,64.80
2018-08-25T07:05:01.072Z,63.99
2018-08-25T07:10:03.260Z,64.15
2018-08-25T07:15:05.659Z,63.48
2018-08-25T07:20:07.846Z,63.99
2018-08-25T07:25:10.009Z,63.26
2018-08-25T07:30:12.193Z,62.16
2018-08-25T07:35:14.347Z,62.00
2018-08-25T07:40:16.559Z,61.86
2018-08-25T07:45:18.784Z,62.15
2018-08-25T07:50:20.943Z,61.75
2018-08-25T07:55:23.141Z,60.84
2018-08-25T08:00:25.477Z,61.06
2018-08-25T08:05:27.727Z,60.37
2018-08-25T08:10:29.835Z,60.96
2018-08-25T08:15:32.052Z,60.08
2018-08-25T08:20:34.200Z,60.11
2018-08-25T08:25:36.410Z,60.73
2018-08-25T08:30:38.536Z,60.13
2018-08-25T08:35:40.702Z,59.89
2018-08-25T08:40:42.843Z,61.19
2018-08-25T08:45:45.028Z,62.58
2018-08-25T08:50:47.171Z,63.34
2018-08-25T08:55:49.308Z,63.35
2018-08-25T09:00:51.462Z,61.42
2018-08-25T09:05:53.587Z,60.50
2018-08-25T09:10:55.774Z,59.11
2018-08-25T09:15:58.363Z,59.33
2018-08-25T09:21:00.528Z,58.49
2018-08-25T09:26:02.730Z,58.89
2018-08-25T09:31:05.125Z,58.91
2018-08-25T09:36:07.351Z,58.45
2018-08-25T09:41:09.569Z,57.42
2018-08-25T09:46:11.795Z,58.78
2018-08-25T09:51:14.082Z,57.96
2018-08-25T09:56:16.340Z,57.21
2018-08-25T10:01:24.284Z,57.90
2018-08-25T10:06:26.491Z,57.74
2018-08-25T10:11:28.669Z,57.52
2018-08-25T10:16:31.027Z,56.50
2018-08-25T10:21:33.105Z,56.71
2018-08-25T10:26:35.260Z,56.45
2018-08-25T10:31:37.443Z,56.38
2018-08-25T10:36:39.896Z,56.09
2018-08-25T10:41:42.487Z,56.21
2018-08-25T10:46:44.605Z,56.33
2018-08-25T10:51:46.786Z,56.93
2018-08-25T10:56:49.008Z,56.97
2018-08-25T11:01:51.179Z,57.42
2018-08-25T11:06:53.337Z,57.17
2018-08-25T11:11:55.561Z,57.41
2018-08-25T11:16:57.779Z,57.34
2018-08-25T11:21:59.920Z,56.61
2018-08-25T11:27:02.100Z,56.96
2018-08-25T11:32:04.491Z,57.61
2018-08-25T11:37:06.915Z,56.92
2018-08-25T11:42:09.078Z,55.97
2018-08-25T11:47:13.203Z,55.71
2018-08-25T11:52:15.423Z,56.50
2018-08-25T11:57:17.660Z,57.22
2018-08-25T12:02:20.814Z,57.36
2018-08-25T12:07:22.961Z,57.65
2018-08-25T12:12:25.169Z,59.19
2018-08-25T12:17:27.375Z,58.85
2018-08-25T12:22:29.568Z,59.10
2018-08-25T12:27:31.720Z,59.15
2018-08-25T12:32:33.958Z,59.49
2018-08-25T12:37:36.135Z,59.27
2018-08-25T12:42:39.020Z,59.85
2018-08-25T12:47:41.221Z,60.10
2018-08-25T12:52:43.416Z,60.37
2018-08-25T12:57:45.637Z,60.00
2018-08-25T13:02:47.911Z,60.28
2018-08-25T13:07:50.094Z,59.68
2018-08-25T13:12:52.313Z,60.22
2018-08-25T13:17:54.544Z,62.71
2018-08-25T13:22:57.035Z,64.59
2018-08-25T13:27:59.215Z,65.30
2018-08-25T13:33:01.378Z,66.08
2018-08-25T13:38:03.644Z,66.75
2018-08-25T13:43:05.843Z,65.75
2018-08-25T13:48:08.017Z,66.14
2018-08-25T13:53:10.218Z,66.92
2018-08-25T13:58:12.439Z,67.78
2018-08-25T14:03:14.595Z,66.78
2018-08-25T14:08:16.940Z,67.63
2018-08-25T14:13:19.039Z,68.31
2018-08-25T14:18:21.256Z,69.14
2018-08-25T14:23:23.410Z,69.20
2018-08-25T14:28:25.642Z,69.06
2018-08-25T14:33:27.826Z,69.61
2018-08-25T14:38:29.988Z,70.21
2018-08-25T14:43:32.179Z,69.83
2018-08-25T14:48:34.381Z,69.87
2018-08-25T14:53:36.549Z,69.67
2018-08-25T14:58:38.733Z,68.84
2018-08-25T15:03:40.940Z,65.72
2018-08-25T15:08:43.163Z,63.64
2018-08-25T15:13:45.346Z,63.18
2018-08-25T15:18:47.686Z,61.52
2018-08-25T15:23:49.820Z,60.06
2018-08-25T15:28:52.000Z,61.50
2018-08-25T15:33:54.496Z,61.92
2018-08-25T15:38:56.669Z,63.48
2018-08-25T15:43:58.844Z,63.27
2018-08-25T15:49:01.017Z,61.21
2018-08-25T15:54:03.204Z,57.36
2018-08-25T15:59:05.447Z,52.78
2018-08-25T16:04:07.632Z,50.85
2018-08-25T16:09:10.414Z,49.09
2018-08-25T16:14:12.599Z,48.93
2018-08-25T16:19:14.784Z,49.78
2018-08-25T16:24:16.931Z,51.43
2018-08-25T16:29:19.146Z,51.77
2018-08-25T16:34:21.310Z,50.56
2018-08-25T16:39:23.541Z,50.92
2018-08-25T16:44:25.734Z,52.05
2018-08-25T16:49:27.999Z,52.53
2018-08-25T16:54:30.132Z,54.48
2018-08-25T16:59:32.298Z,55.82
2018-08-25T17:04:34.493Z,56.67
2018-08-25T17:09:36.668Z,58.63
2018-08-25T17:14:38.857Z,59.25
2018-08-25T17:19:41.383Z,60.06
2018-08-25T17:24:43.553Z,59.85
2018-08-25T17:29:45.770Z,59.99
2018-08-25T17:34:48.052Z,60.67
2018-08-25T17:39:50.245Z,61.56
2018-08-25T17:44:52.430Z,61.99
2018-08-25T17:49:54.674Z,62.72
2018-08-25T17:54:56.846Z,63.14
2018-08-25T17:59:59.023Z,63.35
2018-08-25T18:05:01.247Z,63.97
2018-08-25T18:10:03.520Z,63.71
2018-08-25T18:15:06.229Z,63.77
2018-08-25T18:20:08.565Z,64.58
2018-08-25T18:25:10.748Z,64.25
2018-08-25T18:30:12.960Z,64.86
2018-08-25T18:35:15.404Z,64.73
2018-08-25T18:40:17.628Z,65.23
2018-08-25T18:45:19.851Z,66.01
2018-08-25T18:50:22.142Z,66.24
2018-08-25T18:55:24.366Z,66.30
2018-08-25T19:00:26.610Z,66.76
2018-08-25T19:05:28.771Z,67.66
2018-08-25T19:10:30.922Z,67.45
2018-08-25T19:15:33.126Z,67.25
2018-08-25T19:20:35.313Z,67.49
2018-08-25T19:25:37.835Z,67.76
2018-08-25T19:30:40.067Z,68.23
2018-08-25T19:35:42.308Z,68.17
2018-08-25T19:40:44.460Z,68.68
2018-08-25T19:45:46.653Z,68.87
2018-08-25T19:50:48.910Z,69.32
2018-08-25T19:55:51.208Z,69.43
2018-08-25T20:00:53.387Z,70.28
2018-08-25T20:05:56.078Z,70.26
2018-08-25T20:10:58.304Z,70.35
2018-08-25T20:16:00.519Z,70.27
2018-08-25T20:21:02.714Z,70.51
2018-08-25T20:26:04.959Z,70.59
2018-08-25T20:31:07.176Z,70.71
2018-08-25T20:36:09.354Z,70.69
2018-08-25T20:41:11.577Z,70.80
2018-08-25T20:46:13.794Z,70.58
2018-08-25T20:51:16.046Z,70.83
2018-08-25T20:56:18.216Z,70.52
2018-08-25T21:01:20.425Z,70.97
2018-08-25T21:06:22.659Z,70.51
2018-08-25T21:11:24.844Z,69.93
2018-08-25T21:16:27.053Z,69.13
2018-08-25T21:21:29.309Z,68.95
2018-08-25T21:26:31.472Z,68.84
2018-08-25T21:31:33.676Z,68.80
2018-08-25T21:36:35.862Z,68.28
2018-08-25T21:41:38.248Z,68.47
2018-08-25T21:46:40.435Z,68.87
2018-08-25T21:51:42.653Z,68.68
2018-08-25T21:56:44.831Z,68.67
2018-08-25T22:01:53.448Z,68.50
2018-08-25T22:06:56.471Z,68.99
2018-08-25T22:11:58.650Z,69.52
2018-08-25T22:17:00.880Z,69.65
2018-08-25T22:22:03.024Z,69.05
2018-08-25T22:27:05.208Z,69.27
2018-08-25T22:32:07.690Z,69.11
2018-08-25T22:37:09.882Z,69.54
2018-08-25T22:42:12.165Z,69.34
2018-08-25T22:47:16.671Z,69.26
2018-08-25T22:52:23.459Z,69.59
2018-08-25T22:57:26.816Z,69.16
2018-08-25T23:02:35.338Z,69.93
2018-08-25T23:07:40.314Z,70.03
2018-08-25T23:12:42.430Z,70.22
2018-08-25T23:17:48.497Z,70.71
2018-08-25T23:22:51.031Z,70.51
2018-08-25T23:27:53.178Z,70.04
2018-08-25T23:32:55.334Z,70.64
2018-08-25T23:37:57.627Z,69.95
2018-08-25T23:42:59.754Z,70.20
2018-08-25T23:48:01.871Z,70.62
2018-08-25T23:53:04.228Z,70.90
2018-08-25T23:58:06.389Z,70.37
